sensor_id;sensor_type;location;lat;lon;timestamp;temperature;humidity
71082;SHT31;58740;50.672;18.690;2022-10-31T00:01:32;11.49;77.75
71082;SHT31;58740;50.672;18.690;2022-10-31T00:04:03;11.50;77.71
71082;SHT31;58740;50.672;18.690;2022-10-31T00:06:32;11.51;77.64
71082;SHT31;58740;50.672;18.690;2022-10-31T00:09:01;11.49;77.78
71082;SHT31;58740;50.672;18.690;2022-10-31T00:11:32;11.46;77.80
71082;SHT31;58740;50.672;18.690;2022-10-31T00:13:59;11.44;77.91
71082;SHT31;58740;50.672;18.690;2022-10-31T00:16:28;11.45;77.92
71082;SHT31;58740;50.672;18.690;2022-10-31T00:18:58;11.44;77.90
71082;SHT31;58740;50.672;18.690;2022-10-31T00:21:30;11.43;77.73
71082;SHT31;58740;50.672;18.690;2022-10-31T00:23:58;11.41;77.58
71082;SHT31;58740;50.672;18.690;2022-10-31T00:26:28;11.38;77.62
71082;SHT31;58740;50.672;18.690;2022-10-31T00:28:58;11.35;77.69
71082;SHT31;58740;50.672;18.690;2022-10-31T00:31:27;11.33;77.68
71082;SHT31;58740;50.672;18.690;2022-10-31T00:33:57;11.29;77.70
71082;SHT31;58740;50.672;18.690;2022-10-31T00:36:25;11.25;77.71
71082;SHT31;58740;50.672;18.690;2022-10-31T00:38:53;11.23;77.70
71082;SHT31;58740;50.672;18.690;2022-10-31T00:41:20;11.21;77.59
71082;SHT31;58740;50.672;18.690;2022-10-31T00:43:48;11.17;77.62
71082;SHT31;58740;50.672;18.690;2022-10-31T00:46:16;11.14;77.62
71082;SHT31;58740;50.672;18.690;2022-10-31T00:48:43;11.11;77.62
71082;SHT31;58740;50.672;18.690;2022-10-31T00:51:11;11.06;77.71
71082;SHT31;58740;50.672;18.690;2022-10-31T00:53:38;11.03;77.60
71082;SHT31;58740;50.672;18.690;2022-10-31T00:56:06;10.99;77.58
71082;SHT31;58740;50.672;18.690;2022-10-31T00:58:34;10.98;77.67
71082;SHT31;58740;50.672;18.690;2022-10-31T01:01:02;10.95;77.62
71082;SHT31;58740;50.672;18.690;2022-10-31T01:03:31;10.94;77.66
71082;SHT31;58740;50.672;18.690;2022-10-31T01:08:35;10.91;77.69
71082;SHT31;58740;50.672;18.690;2022-10-31T01:11:08;10.89;77.70
71082;SHT31;58740;50.672;18.690;2022-10-31T01:13:41;10.83;77.86
71082;SHT31;58740;50.672;18.690;2022-10-31T01:16:11;10.79;77.93
71082;SHT31;58740;50.672;18.690;2022-10-31T01:18:42;10.81;77.90
71082;SHT31;58740;50.672;18.690;2022-10-31T01:21:15;10.82;77.76
71082;SHT31;58740;50.672;18.690;2022-10-31T01:23:45;10.81;77.76
71082;SHT31;58740;50.672;18.690;2022-10-31T01:26:15;10.80;77.73
71082;SHT31;58740;50.672;18.690;2022-10-31T01:28:46;10.76;77.73
71082;SHT31;58740;50.672;18.690;2022-10-31T01:31:17;10.73;77.87
71082;SHT31;58740;50.672;18.690;2022-10-31T01:33:47;10.71;78.04
71082;SHT31;58740;50.672;18.690;2022-10-31T01:39:05;10.75;78.15
71082;SHT31;58740;50.672;18.690;2022-10-31T01:41:41;10.77;78.06
71082;SHT31;58740;50.672;18.690;2022-10-31T01:54:54;10.78;77.76
71082;SHT31;58740;50.672;18.690;2022-10-31T01:57:30;10.76;77.64
71082;SHT31;58740;50.672;18.690;2022-10-31T02:00:04;10.72;77.58
71082;SHT31;58740;50.672;18.690;2022-10-31T02:02:36;10.70;77.56
71082;SHT31;58740;50.672;18.690;2022-10-31T02:05:05;10.67;77.50
71082;SHT31;58740;50.672;18.690;2022-10-31T02:07:59;10.64;77.47
71082;SHT31;58740;50.672;18.690;2022-10-31T02:11:01;10.58;77.36
71082;SHT31;58740;50.672;18.690;2022-10-31T02:13:28;10.53;77.47
71082;SHT31;58740;50.672;18.690;2022-10-31T02:15:57;10.50;77.59
71082;SHT31;58740;50.672;18.690;2022-10-31T02:18:27;10.48;77.69
71082;SHT31;58740;50.672;18.690;2022-10-31T02:21:10;10.48;77.82
71082;SHT31;58740;50.672;18.690;2022-10-31T02:30:25;10.46;77.45
71082;SHT31;58740;50.672;18.690;2022-10-31T02:44:55;10.28;77.81
71082;SHT31;58740;50.672;18.690;2022-10-31T02:47:36;10.28;77.82
71082;SHT31;58740;50.672;18.690;2022-10-31T02:50:10;10.28;77.65
71082;SHT31;58740;50.672;18.690;2022-10-31T02:52:53;10.27;77.52
71082;SHT31;58740;50.672;18.690;2022-10-31T02:55:44;10.22;77.52
71082;SHT31;58740;50.672;18.690;2022-10-31T02:58:21;10.20;77.70
71082;SHT31;58740;50.672;18.690;2022-10-31T03:12:29;10.15;77.56
71082;SHT31;58740;50.672;18.690;2022-10-31T03:15:16;10.13;77.57
71082;SHT31;58740;50.672;18.690;2022-10-31T03:20:39;10.11;77.54
71082;SHT31;58740;50.672;18.690;2022-10-31T03:23:13;10.08;77.44
71082;SHT31;58740;50.672;18.690;2022-10-31T03:25:45;10.06;77.40
71082;SHT31;58740;50.672;18.690;2022-10-31T03:28:16;10.05;77.46
71082;SHT31;58740;50.672;18.690;2022-10-31T03:30:52;10.06;77.49
71082;SHT31;58740;50.672;18.690;2022-10-31T03:33:24;10.05;77.34
71082;SHT31;58740;50.672;18.690;2022-10-31T03:35:57;10.02;77.39
71082;SHT31;58740;50.672;18.690;2022-10-31T03:38:31;9.99;77.40
71082;SHT31;58740;50.672;18.690;2022-10-31T03:41:03;9.93;77.41
71082;SHT31;58740;50.672;18.690;2022-10-31T03:43:36;9.92;77.41
71082;SHT31;58740;50.672;18.690;2022-10-31T03:46:11;9.91;77.34
71082;SHT31;58740;50.672;18.690;2022-10-31T03:48:39;9.90;77.21
71082;SHT31;58740;50.672;18.690;2022-10-31T03:53:56;9.84;77.40
71082;SHT31;58740;50.672;18.690;2022-10-31T04:01:59;9.78;77.47
71082;SHT31;58740;50.672;18.690;2022-10-31T04:04:38;9.75;77.60
71082;SHT31;58740;50.672;18.690;2022-10-31T04:07:07;9.73;77.60
71082;SHT31;58740;50.672;18.690;2022-10-31T04:09:38;9.72;77.61
71082;SHT31;58740;50.672;18.690;2022-10-31T04:12:13;9.74;77.62
71082;SHT31;58740;50.672;18.690;2022-10-31T04:14:43;9.76;77.50
71082;SHT31;58740;50.672;18.690;2022-10-31T04:17:16;9.77;77.50
71082;SHT31;58740;50.672;18.690;2022-10-31T04:19:48;9.77;77.47
71082;SHT31;58740;50.672;18.690;2022-10-31T04:22:16;9.77;77.45
71082;SHT31;58740;50.672;18.690;2022-10-31T04:24:44;9.74;77.48
71082;SHT31;58740;50.672;18.690;2022-10-31T04:27:11;9.71;77.42
71082;SHT31;58740;50.672;18.690;2022-10-31T04:29:39;9.70;77.48
71082;SHT31;58740;50.672;18.690;2022-10-31T04:32:06;9.67;77.38
71082;SHT31;58740;50.672;18.690;2022-10-31T04:34:34;9.66;77.33
71082;SHT31;58740;50.672;18.690;2022-10-31T04:37:01;9.64;77.33
71082;SHT31;58740;50.672;18.690;2022-10-31T04:39:29;9.61;77.39
71082;SHT31;58740;50.672;18.690;2022-10-31T04:41:57;9.60;77.46
71082;SHT31;58740;50.672;18.690;2022-10-31T04:44:24;9.60;77.62
71082;SHT31;58740;50.672;18.690;2022-10-31T04:46:52;9.59;77.90
71082;SHT31;58740;50.672;18.690;2022-10-31T04:49:20;9.61;77.83
71082;SHT31;58740;50.672;18.690;2022-10-31T04:51:48;9.66;77.71
71082;SHT31;58740;50.672;18.690;2022-10-31T04:54:15;9.65;77.65
71082;SHT31;58740;50.672;18.690;2022-10-31T04:56:43;9.63;77.63
71082;SHT31;58740;50.672;18.690;2022-10-31T04:59:10;9.66;77.38
71082;SHT31;58740;50.672;18.690;2022-10-31T05:01:38;9.65;77.14
71082;SHT31;58740;50.672;18.690;2022-10-31T05:04:06;9.60;77.20
71082;SHT31;58740;50.672;18.690;2022-10-31T05:06:34;9.58;77.13
71082;SHT31;58740;50.672;18.690;2022-10-31T05:09:01;9.54;77.08
71082;SHT31;58740;50.672;18.690;2022-10-31T05:11:29;9.48;77.10
71082;SHT31;58740;50.672;18.690;2022-10-31T05:13:57;9.47;77.19
71082;SHT31;58740;50.672;18.690;2022-10-31T05:16:24;9.45;77.20
71082;SHT31;58740;50.672;18.690;2022-10-31T05:18:52;9.44;77.22
71082;SHT31;58740;50.672;18.690;2022-10-31T05:21:19;9.43;77.28
71082;SHT31;58740;50.672;18.690;2022-10-31T05:23:47;9.43;77.20
71082;SHT31;58740;50.672;18.690;2022-10-31T05:26:15;9.40;77.15
71082;SHT31;58740;50.672;18.690;2022-10-31T05:28:43;9.36;77.22
71082;SHT31;58740;50.672;18.690;2022-10-31T05:31:11;9.32;77.30
71082;SHT31;58740;50.672;18.690;2022-10-31T05:33:38;9.30;77.23
71082;SHT31;58740;50.672;18.690;2022-10-31T05:36:06;9.27;77.28
71082;SHT31;58740;50.672;18.690;2022-10-31T05:38:34;9.28;77.36
71082;SHT31;58740;50.672;18.690;2022-10-31T05:41:02;9.29;77.39
71082;SHT31;58740;50.672;18.690;2022-10-31T05:43:29;9.30;77.30
71082;SHT31;58740;50.672;18.690;2022-10-31T05:45:57;9.32;77.33
71082;SHT31;58740;50.672;18.690;2022-10-31T05:48:25;9.31;77.43
71082;SHT31;58740;50.672;18.690;2022-10-31T05:50:52;9.31;77.40
71082;SHT31;58740;50.672;18.690;2022-10-31T05:53:20;9.30;77.40
71082;SHT31;58740;50.672;18.690;2022-10-31T05:55:48;9.29;77.39
71082;SHT31;58740;50.672;18.690;2022-10-31T05:58:15;9.29;77.30
71082;SHT31;58740;50.672;18.690;2022-10-31T06:00:43;9.27;77.48
71082;SHT31;58740;50.672;18.690;2022-10-31T06:03:10;9.30;77.40
71082;SHT31;58740;50.672;18.690;2022-10-31T06:05:38;9.32;77.38
71082;SHT31;58740;50.672;18.690;2022-10-31T06:08:06;9.33;77.41
71082;SHT31;58740;50.672;18.690;2022-10-31T06:10:33;9.35;77.44
71082;SHT31;58740;50.672;18.690;2022-10-31T06:13:01;9.34;77.50
71082;SHT31;58740;50.672;18.690;2022-10-31T06:15:28;9.34;77.62
71082;SHT31;58740;50.672;18.690;2022-10-31T06:17:57;9.37;77.72
71082;SHT31;58740;50.672;18.690;2022-10-31T06:20:30;9.42;77.82
71082;SHT31;58740;50.672;18.690;2022-10-31T06:23:00;9.47;77.89
71082;SHT31;58740;50.672;18.690;2022-10-31T06:25:28;9.51;77.90
71082;SHT31;58740;50.672;18.690;2022-10-31T06:27:56;9.56;78.01
71082;SHT31;58740;50.672;18.690;2022-10-31T06:30:24;9.61;78.19
71082;SHT31;58740;50.672;18.690;2022-10-31T06:32:52;9.67;78.36
71082;SHT31;58740;50.672;18.690;2022-10-31T06:35:20;9.73;78.36
71082;SHT31;58740;50.672;18.690;2022-10-31T06:37:52;9.80;78.40
71082;SHT31;58740;50.672;18.690;2022-10-31T06:40:21;9.87;78.46
71082;SHT31;58740;50.672;18.690;2022-10-31T06:42:59;9.95;78.55
71082;SHT31;58740;50.672;18.690;2022-10-31T06:45:28;10.01;78.61
71082;SHT31;58740;50.672;18.690;2022-10-31T06:47:56;10.07;78.63
71082;SHT31;58740;50.672;18.690;2022-10-31T06:50:44;10.14;78.76
71082;SHT31;58740;50.672;18.690;2022-10-31T06:53:12;10.20;78.89
71082;SHT31;58740;50.672;18.690;2022-10-31T06:55:41;10.27;79.01
71082;SHT31;58740;50.672;18.690;2022-10-31T06:58:10;10.37;79.01
71082;SHT31;58740;50.672;18.690;2022-10-31T07:00:38;10.47;79.08
71082;SHT31;58740;50.672;18.690;2022-10-31T07:03:09;10.57;79.10
71082;SHT31;58740;50.672;18.690;2022-10-31T07:05:40;10.66;79.23
71082;SHT31;58740;50.672;18.690;2022-10-31T07:08:09;10.75;79.21
71082;SHT31;58740;50.672;18.690;2022-10-31T07:10:39;10.84;78.94
71082;SHT31;58740;50.672;18.690;2022-10-31T07:13:10;10.92;78.86
71082;SHT31;58740;50.672;18.690;2022-10-31T07:15:41;11.02;79.30
71082;SHT31;58740;50.672;18.690;2022-10-31T07:18:11;11.11;79.15
71082;SHT31;58740;50.672;18.690;2022-10-31T07:20:39;11.19;79.41
71082;SHT31;58740;50.672;18.690;2022-10-31T07:23:08;11.28;79.32
71082;SHT31;58740;50.672;18.690;2022-10-31T07:25:41;11.37;79.49
71082;SHT31;58740;50.672;18.690;2022-10-31T07:28:09;11.46;79.28
71082;SHT31;58740;50.672;18.690;2022-10-31T07:30:38;11.56;79.19
71082;SHT31;58740;50.672;18.690;2022-10-31T07:33:06;11.64;79.33
71082;SHT31;58740;50.672;18.690;2022-10-31T07:35:33;11.73;79.27
71082;SHT31;58740;50.672;18.690;2022-10-31T07:38:09;11.83;79.20
71082;SHT31;58740;50.672;18.690;2022-10-31T07:40:39;11.90;79.28
71082;SHT31;58740;50.672;18.690;2022-10-31T07:43:09;11.98;79.21
71082;SHT31;58740;50.672;18.690;2022-10-31T07:45:41;12.06;79.33
71082;SHT31;58740;50.672;18.690;2022-10-31T07:48:09;12.16;79.37
71082;SHT31;58740;50.672;18.690;2022-10-31T07:50:36;12.22;79.50
71082;SHT31;58740;50.672;18.690;2022-10-31T07:53:08;12.29;79.51
71082;SHT31;58740;50.672;18.690;2022-10-31T07:55:38;12.37;79.34
71082;SHT31;58740;50.672;18.690;2022-10-31T07:58:07;12.47;79.25
71082;SHT31;58740;50.672;18.690;2022-10-31T08:00:38;12.53;79.23
71082;SHT31;58740;50.672;18.690;2022-10-31T08:03:10;12.61;79.17
71082;SHT31;58740;50.672;18.690;2022-10-31T08:05:40;12.69;79.24
71082;SHT31;58740;50.672;18.690;2022-10-31T08:08:09;12.81;79.29
71082;SHT31;58740;50.672;18.690;2022-10-31T08:10:36;12.89;79.42
71082;SHT31;58740;50.672;18.690;2022-10-31T08:13:11;12.99;79.20
71082;SHT31;58740;50.672;18.690;2022-10-31T08:15:41;13.05;79.10
71082;SHT31;58740;50.672;18.690;2022-10-31T08:18:11;13.12;79.05
71082;SHT31;58740;50.672;18.690;2022-10-31T08:20:41;13.15;79.12
71082;SHT31;58740;50.672;18.690;2022-10-31T08:23:10;13.19;79.04
71082;SHT31;58740;50.672;18.690;2022-10-31T08:25:39;13.26;79.00
71082;SHT31;58740;50.672;18.690;2022-10-31T08:28:10;13.36;79.01
71082;SHT31;58740;50.672;18.690;2022-10-31T08:30:39;13.44;78.92
71082;SHT31;58740;50.672;18.690;2022-10-31T08:33:12;13.52;78.83
71082;SHT31;58740;50.672;18.690;2022-10-31T08:35:44;13.60;78.98
71082;SHT31;58740;50.672;18.690;2022-10-31T08:38:12;13.68;79.28
71082;SHT31;58740;50.672;18.690;2022-10-31T08:40:41;13.76;79.33
71082;SHT31;58740;50.672;18.690;2022-10-31T08:43:13;13.85;79.46
71082;SHT31;58740;50.672;18.690;2022-10-31T08:45:43;13.95;79.61
71082;SHT31;58740;50.672;18.690;2022-10-31T08:48:16;14.05;79.65
71082;SHT31;58740;50.672;18.690;2022-10-31T08:50:44;14.13;79.45
71082;SHT31;58740;50.672;18.690;2022-10-31T08:53:19;14.20;79.10
71082;SHT31;58740;50.672;18.690;2022-10-31T08:55:47;14.26;78.81
71082;SHT31;58740;50.672;18.690;2022-10-31T08:58:16;14.31;78.68
71082;SHT31;58740;50.672;18.690;2022-10-31T09:00:46;14.37;78.77
71082;SHT31;58740;50.672;18.690;2022-10-31T09:03:18;14.44;78.53
71082;SHT31;58740;50.672;18.690;2022-10-31T09:05:50;14.49;78.45
71082;SHT31;58740;50.672;18.690;2022-10-31T09:08:23;14.56;78.63
71082;SHT31;58740;50.672;18.690;2022-10-31T09:10:51;14.62;78.37
71082;SHT31;58740;50.672;18.690;2022-10-31T09:13:20;14.64;78.60
71082;SHT31;58740;50.672;18.690;2022-10-31T09:15:52;14.70;78.88
71082;SHT31;58740;50.672;18.690;2022-10-31T09:18:21;14.78;78.46
71082;SHT31;58740;50.672;18.690;2022-10-31T09:20:50;14.84;78.14
71082;SHT31;58740;50.672;18.690;2022-10-31T09:23:18;14.90;78.02
71082;SHT31;58740;50.672;18.690;2022-10-31T09:25:50;14.96;78.20
71082;SHT31;58740;50.672;18.690;2022-10-31T09:28:20;15.02;78.21
71082;SHT31;58740;50.672;18.690;2022-10-31T09:30:52;15.07;78.30
71082;SHT31;58740;50.672;18.690;2022-10-31T09:33:21;15.13;78.31
71082;SHT31;58740;50.672;18.690;2022-10-31T09:35:49;15.21;78.16
71082;SHT31;58740;50.672;18.690;2022-10-31T09:38:18;15.27;77.67
71082;SHT31;58740;50.672;18.690;2022-10-31T09:41:37;15.34;77.54
71082;SHT31;58740;50.672;18.690;2022-10-31T09:44:07;15.41;77.87
71082;SHT31;58740;50.672;18.690;2022-10-31T09:50:11;15.53;77.18
71082;SHT31;58740;50.672;18.690;2022-10-31T09:52:53;15.59;77.33
71082;SHT31;58740;50.672;18.690;2022-10-31T09:55:37;15.68;77.39
71082;SHT31;58740;50.672;18.690;2022-10-31T09:58:13;15.74;77.32
71082;SHT31;58740;50.672;18.690;2022-10-31T10:00:56;15.83;76.91
71082;SHT31;58740;50.672;18.690;2022-10-31T10:03:39;15.88;76.36
71082;SHT31;58740;50.672;18.690;2022-10-31T10:06:17;15.91;75.88
71082;SHT31;58740;50.672;18.690;2022-10-31T10:08:50;15.93;76.01
71082;SHT31;58740;50.672;18.690;2022-10-31T10:14:55;16.02;76.16
71082;SHT31;58740;50.672;18.690;2022-10-31T10:17:38;16.10;75.66
71082;SHT31;58740;50.672;18.690;2022-10-31T10:20:40;16.15;75.33
71082;SHT31;58740;50.672;18.690;2022-10-31T10:26:21;16.20;75.08
71082;SHT31;58740;50.672;18.690;2022-10-31T10:32:52;16.26;74.26
71082;SHT31;58740;50.672;18.690;2022-10-31T10:40:53;16.40;73.10
71082;SHT31;58740;50.672;18.690;2022-10-31T10:43:30;16.43;73.03
71082;SHT31;58740;50.672;18.690;2022-10-31T10:55:32;16.54;72.14
71082;SHT31;58740;50.672;18.690;2022-10-31T10:58:09;16.54;72.06
71082;SHT31;58740;50.672;18.690;2022-10-31T11:00:39;16.56;72.02
71082;SHT31;58740;50.672;18.690;2022-10-31T11:03:14;16.59;72.35
71082;SHT31;58740;50.672;18.690;2022-10-31T11:05:46;16.62;72.15
71082;SHT31;58740;50.672;18.690;2022-10-31T11:08:30;16.66;72.16
71082;SHT31;58740;50.672;18.690;2022-10-31T11:13:36;16.72;71.76
71082;SHT31;58740;50.672;18.690;2022-10-31T11:18:45;16.73;71.82
71082;SHT31;58740;50.672;18.690;2022-10-31T11:24:39;16.80;72.44
71082;SHT31;58740;50.672;18.690;2022-10-31T11:27:03;16.87;72.30
71082;SHT31;58740;50.672;18.690;2022-10-31T11:29:51;16.91;71.57
71082;SHT31;58740;50.672;18.690;2022-10-31T11:32:26;16.95;71.46
71082;SHT31;58740;50.672;18.690;2022-10-31T11:34:55;16.97;71.32
71082;SHT31;58740;50.672;18.690;2022-10-31T11:37:32;17.00;71.29
71082;SHT31;58740;50.672;18.690;2022-10-31T11:40:14;17.03;71.67
71082;SHT31;58740;50.672;18.690;2022-10-31T11:42:47;17.06;71.49
71082;SHT31;58740;50.672;18.690;2022-10-31T11:45:28;17.07;71.25
71082;SHT31;58740;50.672;18.690;2022-10-31T11:48:01;17.12;71.05
71082;SHT31;58740;50.672;18.690;2022-10-31T11:50:42;17.18;71.32
71082;SHT31;58740;50.672;18.690;2022-10-31T11:53:21;17.23;70.95
71082;SHT31;58740;50.672;18.690;2022-10-31T11:56:06;17.25;70.75
71082;SHT31;58740;50.672;18.690;2022-10-31T11:58:42;17.28;70.62
71082;SHT31;58740;50.672;18.690;2022-10-31T12:01:26;17.30;70.44
71082;SHT31;58740;50.672;18.690;2022-10-31T12:06:41;17.30;70.36
71082;SHT31;58740;50.672;18.690;2022-10-31T12:30:54;17.37;70.15
71082;SHT31;58740;50.672;18.690;2022-10-31T12:33:43;17.37;70.22
71082;SHT31;58740;50.672;18.690;2022-10-31T12:36:42;17.38;70.08
71082;SHT31;58740;50.672;18.690;2022-10-31T12:59:31;17.47;70.03
71082;SHT31;58740;50.672;18.690;2022-10-31T13:05:17;17.48;70.07
71082;SHT31;58740;50.672;18.690;2022-10-31T13:16:56;17.55;70.40
71082;SHT31;58740;50.672;18.690;2022-10-31T13:27:47;17.54;70.57
71082;SHT31;58740;50.672;18.690;2022-10-31T13:30:27;17.55;70.43
71082;SHT31;58740;50.672;18.690;2022-10-31T13:33:12;17.57;70.67
71082;SHT31;58740;50.672;18.690;2022-10-31T13:42:15;17.57;70.53
71082;SHT31;58740;50.672;18.690;2022-10-31T13:44:53;17.56;70.31
71082;SHT31;58740;50.672;18.690;2022-10-31T13:47:27;17.55;70.42
71082;SHT31;58740;50.672;18.690;2022-10-31T13:50:06;17.54;70.44
71082;SHT31;58740;50.672;18.690;2022-10-31T13:52:49;17.53;70.42
71082;SHT31;58740;50.672;18.690;2022-10-31T13:58:24;17.55;70.25
71082;SHT31;58740;50.672;18.690;2022-10-31T14:00:59;17.55;70.30
71082;SHT31;58740;50.672;18.690;2022-10-31T14:03:39;17.54;70.30
71082;SHT31;58740;50.672;18.690;2022-10-31T14:06:36;17.52;70.38
71082;SHT31;58740;50.672;18.690;2022-10-31T14:12:37;17.45;70.48
71082;SHT31;58740;50.672;18.690;2022-10-31T14:26:05;17.39;70.90
71082;SHT31;58740;50.672;18.690;2022-10-31T14:29:03;17.36;71.14
71082;SHT31;58740;50.672;18.690;2022-10-31T14:34:40;17.27;71.49
71082;SHT31;58740;50.672;18.690;2022-10-31T14:40:29;17.18;71.79
71082;SHT31;58740;50.672;18.690;2022-10-31T14:46:02;17.13;72.20
71082;SHT31;58740;50.672;18.690;2022-10-31T14:51:47;17.04;72.31
71082;SHT31;58740;50.672;18.690;2022-10-31T14:54:25;16.98;72.44
71082;SHT31;58740;50.672;18.690;2022-10-31T14:57:45;16.92;72.56
71082;SHT31;58740;50.672;18.690;2022-10-31T15:00:02;16.87;72.89
71082;SHT31;58740;50.672;18.690;2022-10-31T15:02:39;16.84;72.94
71082;SHT31;58740;50.672;18.690;2022-10-31T15:05:55;16.79;73.06
71082;SHT31;58740;50.672;18.690;2022-10-31T15:08:37;16.75;73.17
71082;SHT31;58740;50.672;18.690;2022-10-31T15:13:46;16.64;73.32
71082;SHT31;58740;50.672;18.690;2022-10-31T15:16:23;16.58;73.43
71082;SHT31;58740;50.672;18.690;2022-10-31T15:19:04;16.52;73.48
71082;SHT31;58740;50.672;18.690;2022-10-31T15:21:40;16.47;73.68
71082;SHT31;58740;50.672;18.690;2022-10-31T15:24:15;16.40;73.95
71082;SHT31;58740;50.672;18.690;2022-10-31T15:26:46;16.34;74.01
71082;SHT31;58740;50.672;18.690;2022-10-31T15:29:23;16.31;73.94
71082;SHT31;58740;50.672;18.690;2022-10-31T15:31:54;16.23;73.94
71082;SHT31;58740;50.672;18.690;2022-10-31T15:34:30;16.16;74.07
71082;SHT31;58740;50.672;18.690;2022-10-31T15:37:12;16.08;74.16
71082;SHT31;58740;50.672;18.690;2022-10-31T15:39:42;16.03;74.23
71082;SHT31;58740;50.672;18.690;2022-10-31T15:45:01;15.93;74.40
71082;SHT31;58740;50.672;18.690;2022-10-31T15:47:45;15.86;74.38
71082;SHT31;58740;50.672;18.690;2022-10-31T15:53:05;15.72;74.49
71082;SHT31;58740;50.672;18.690;2022-10-31T15:55:48;15.63;74.57
71082;SHT31;58740;50.672;18.690;2022-10-31T15:58:42;15.56;74.60
71082;SHT31;58740;50.672;18.690;2022-10-31T16:01:31;15.49;74.68
71082;SHT31;58740;50.672;18.690;2022-10-31T16:06:39;15.37;74.76
71082;SHT31;58740;50.672;18.690;2022-10-31T16:12:04;15.22;75.06
71082;SHT31;58740;50.672;18.690;2022-10-31T16:14:32;15.18;75.23
71082;SHT31;58740;50.672;18.690;2022-10-31T16:17:10;15.13;75.20
71082;SHT31;58740;50.672;18.690;2022-10-31T16:19:57;15.08;75.22
71082;SHT31;58740;50.672;18.690;2022-10-31T16:22:34;15.05;75.21
71082;SHT31;58740;50.672;18.690;2022-10-31T16:25:12;15.02;75.20
71082;SHT31;58740;50.672;18.690;2022-10-31T16:27:51;14.98;75.29
71082;SHT31;58740;50.672;18.690;2022-10-31T16:30:40;14.93;75.31
71082;SHT31;58740;50.672;18.690;2022-10-31T16:33:31;14.86;75.30
71082;SHT31;58740;50.672;18.690;2022-10-31T16:39:05;14.72;75.48
71082;SHT31;58740;50.672;18.690;2022-10-31T16:41:35;14.68;75.54
71082;SHT31;58740;50.672;18.690;2022-10-31T16:44:15;14.64;75.59
71082;SHT31;58740;50.672;18.690;2022-10-31T16:47:09;14.60;75.65
71082;SHT31;58740;50.672;18.690;2022-10-31T16:49:42;14.56;75.67
71082;SHT31;58740;50.672;18.690;2022-10-31T16:52:13;14.49;75.65
71082;SHT31;58740;50.672;18.690;2022-10-31T16:54:42;14.45;75.75
71082;SHT31;58740;50.672;18.690;2022-10-31T16:57:12;14.40;75.93
71082;SHT31;58740;50.672;18.690;2022-10-31T16:59:45;14.37;76.06
71082;SHT31;58740;50.672;18.690;2022-10-31T17:02:17;14.36;76.13
71082;SHT31;58740;50.672;18.690;2022-10-31T17:04:48;14.37;76.21
71082;SHT31;58740;50.672;18.690;2022-10-31T17:07:22;14.36;76.25
71082;SHT31;58740;50.672;18.690;2022-10-31T17:09:50;14.34;76.30
71082;SHT31;58740;50.672;18.690;2022-10-31T17:12:18;14.32;76.31
71082;SHT31;58740;50.672;18.690;2022-10-31T17:14:52;14.28;76.17
71082;SHT31;58740;50.672;18.690;2022-10-31T17:17:20;14.25;76.25
71082;SHT31;58740;50.672;18.690;2022-10-31T17:19:47;14.22;76.44
71082;SHT31;58740;50.672;18.690;2022-10-31T17:22:15;14.20;76.22
71082;SHT31;58740;50.672;18.690;2022-10-31T17:24:43;14.17;76.19
71082;SHT31;58740;50.672;18.690;2022-10-31T17:27:11;14.14;76.19
71082;SHT31;58740;50.672;18.690;2022-10-31T17:29:39;14.10;76.11
71082;SHT31;58740;50.672;18.690;2022-10-31T17:32:06;14.06;76.13
71082;SHT31;58740;50.672;18.690;2022-10-31T17:34:34;14.00;76.15
71082;SHT31;58740;50.672;18.690;2022-10-31T17:37:01;13.93;76.22
71082;SHT31;58740;50.672;18.690;2022-10-31T17:39:29;13.89;76.24
71082;SHT31;58740;50.672;18.690;2022-10-31T17:41:57;13.84;76.33
71082;SHT31;58740;50.672;18.690;2022-10-31T17:44:25;13.79;76.29
71082;SHT31;58740;50.672;18.690;2022-10-31T17:46:52;13.75;76.22
71082;SHT31;58740;50.672;18.690;2022-10-31T17:49:20;13.70;76.17
71082;SHT31;58740;50.672;18.690;2022-10-31T17:51:47;13.65;76.46
71082;SHT31;58740;50.672;18.690;2022-10-31T17:54:15;13.63;76.50
71082;SHT31;58740;50.672;18.690;2022-10-31T17:56:45;13.58;76.43
71082;SHT31;58740;50.672;18.690;2022-10-31T17:59:12;13.56;76.57
71082;SHT31;58740;50.672;18.690;2022-10-31T18:01:40;13.54;76.67
71082;SHT31;58740;50.672;18.690;2022-10-31T18:04:08;13.53;76.60
71082;SHT31;58740;50.672;18.690;2022-10-31T18:06:36;13.52;76.56
71082;SHT31;58740;50.672;18.690;2022-10-31T18:09:04;13.51;76.57
71082;SHT31;58740;50.672;18.690;2022-10-31T18:11:33;13.48;76.67
71082;SHT31;58740;50.672;18.690;2022-10-31T18:14:00;13.44;76.52
71082;SHT31;58740;50.672;18.690;2022-10-31T18:16:29;13.38;76.50
71082;SHT31;58740;50.672;18.690;2022-10-31T18:18:57;13.35;76.39
71082;SHT31;58740;50.672;18.690;2022-10-31T18:21:30;13.30;76.34
71082;SHT31;58740;50.672;18.690;2022-10-31T18:23:59;13.23;76.29
71082;SHT31;58740;50.672;18.690;2022-10-31T18:26:26;13.14;76.40
71082;SHT31;58740;50.672;18.690;2022-10-31T18:28:55;13.09;76.50
71082;SHT31;58740;50.672;18.690;2022-10-31T18:31:23;13.05;76.87
71082;SHT31;58740;50.672;18.690;2022-10-31T18:33:51;13.03;76.96
71082;SHT31;58740;50.672;18.690;2022-10-31T18:36:21;13.00;77.01
71082;SHT31;58740;50.672;18.690;2022-10-31T18:38:49;13.00;76.99
71082;SHT31;58740;50.672;18.690;2022-10-31T18:41:17;13.01;76.88
71082;SHT31;58740;50.672;18.690;2022-10-31T18:43:45;12.99;76.76
71082;SHT31;58740;50.672;18.690;2022-10-31T18:46:14;12.99;76.76
71082;SHT31;58740;50.672;18.690;2022-10-31T18:48:44;12.98;76.70
71082;SHT31;58740;50.672;18.690;2022-10-31T18:51:12;12.95;76.71
71082;SHT31;58740;50.672;18.690;2022-10-31T18:53:40;12.93;76.62
71082;SHT31;58740;50.672;18.690;2022-10-31T18:56:08;12.90;76.55
71082;SHT31;58740;50.672;18.690;2022-10-31T18:58:38;12.88;76.48
71082;SHT31;58740;50.672;18.690;2022-10-31T19:01:06;12.85;76.59
71082;SHT31;58740;50.672;18.690;2022-10-31T19:03:38;12.82;76.42
71082;SHT31;58740;50.672;18.690;2022-10-31T19:06:07;12.79;76.48
71082;SHT31;58740;50.672;18.690;2022-10-31T19:08:36;12.76;76.42
71082;SHT31;58740;50.672;18.690;2022-10-31T19:11:06;12.71;76.49
71082;SHT31;58740;50.672;18.690;2022-10-31T19:13:39;12.68;76.45
71082;SHT31;58740;50.672;18.690;2022-10-31T19:16:10;12.65;76.52
71082;SHT31;58740;50.672;18.690;2022-10-31T19:18:43;12.65;76.86
71082;SHT31;58740;50.672;18.690;2022-10-31T19:21:15;12.63;77.07
71082;SHT31;58740;50.672;18.690;2022-10-31T19:23:44;12.62;77.16
71082;SHT31;58740;50.672;18.690;2022-10-31T19:26:12;12.62;76.90